KCDR/CDR METAR and TAF weather

Enter ICAO airport designator
Station Type Date Time Source
KCDR METAR 2021/09/20 04:10 UTC NOAA

KCDR 200410Z AUTO 07008KT 10SM BKN110 17/09 A2983 RMK AO2 RAE06 P0000 T01670089 $


Station Type Date Time Source
KCDR Decoded METAR 2021/09/20 04:10 UTC NOAA

CHADRON MUNICIPAL AIRPORT, NE, United States (KCDR) 42-50N 103-06W 1010M
Sep 20, 2021 - 12:10 AM EDT / 2021.09.20 0410 UTC
Wind: from the ENE (070 degrees) at 9 MPH (8 KT):0
Visibility: 10 mile(s):0
Sky conditions: mostly cloudy
Precipitation last hour: A trace
Temperature: 62.1 F (16.7 C)
Dew Point: 48.0 F (8.9 C)
Relative Humidity: 59%
Pressure (altimeter): 29.83 in. Hg (1010 hPa)
ob: KCDR 200410Z AUTO 07008KT 10SM BKN110 17/09 A2983 RMK AO2 RAE06 P0000 T01670089
cycle: 4

Station Type Date Time Source
KCDR TAF 2021/09/20 03:48 UTC NOAA

TAF
AMD KCDR 200246Z 2003/2024 33022G32KT 6SM -RA BR BKN060
FM200900 31012G20KT P6SM VCSH BKN025 OVC040
FM201200 31010G20KT P6SM VCSH OVC020
FM201700 32015G25KT P6SM BKN040

Example: see airport list